< Typhoon 200402 2004 Season Typhoon 200404 >
Typhoon 200403 (OMAIS)
General InformationTrack Information on Google MapsDetailed Wind InformationAccess Analytics MapList of All Images || NewsDisaster Info.WeblogResourceGoogle EarthGE AnimationAtom FeedGeoJSON
Detalied Best Track (Time Zone = UTC)
Year Month Day Hour Lat. Long. Pressure (hPa) Wind (kt) Class Image Chart
2004 5 16 12 6.3 141.4 1004 0 2 Image Chart
2004 5 16 18 6.5 141.0 1004 0 2 Image Chart
2004 5 17 00 6.9 140.5 1004 0 2 Image Chart
2004 5 17 06 7.2 139.7 1000 0 2 Image Chart
2004 5 17 12 7.8 139.3 1000 0 2 Image Chart
2004 5 17 18 8.1 138.9 1000 0 2 Image Chart
2004 5 18 00 8.5 138.4 996 35 3 Image Chart
2004 5 18 06 8.9 137.5 996 35 3 Image Chart
2004 5 18 12 9.4 136.5 996 35 3 Image Chart
2004 5 18 18 9.7 135.7 996 35 3 Image Chart
2004 5 19 00 10.2 134.9 996 35 3 Image Chart
2004 5 19 06 10.8 133.9 992 40 3 Image Chart
2004 5 19 12 11.4 133.0 985 50 4 Image Chart
2004 5 19 18 11.9 133.2 985 50 4 Image Chart
2004 5 20 00 12.7 133.4 990 45 3 Image Chart
2004 5 20 06 13.6 133.7 990 45 3 Image Chart
2004 5 20 12 14.5 133.8 990 45 3 Image Chart
2004 5 20 18 15.4 134.0 990 40 3 Image Chart
2004 5 21 00 16.5 134.5 996 35 3 Image Chart
2004 5 21 06 16.7 134.9 998 0 2 Image Chart
2004 5 21 12 16.8 135.2 1004 0 2 Image Chart
2004 5 21 18 18.2 135.0 1004 0 2 Image Chart
2004 5 22 00 19.2 134.8 1004 0 2 Image Chart
Japan Meteorological Agency Best Track Data | Correction Date : 2006-01-18
< Typhoon 200402 2004 Season Typhoon 200404 >

Help